Archival Weather

Chicago O'Hare International

Chicago, Illinois (KORD)

Report from: Sunday, December 4, 2022 7:51 AM CST
Current time: Friday, June 14, 2024 8:08 AM CDT

Current weather – Weather history – Daily summaries
Weather forecast

Temperature-5.6°C (21.9°F)
Wind chill-12.3°C (9.8°F)
Dew point-12.2°C (10.0°F)
Winds 11 kts (5.7 m/s, 12.7 mph) Southwest (230°)
Visibility10 mi. (16.1 km)
Clouds Sky clear
Altimeter30.24 in.Hg (1024 mB)
Relative humidity60 %
Density altitude-2,912 ft. (-888 m)
Sea-level pressure102.5 kPa (1025 mB, 30.27 in.Hg)
Remarks System requires maintenance
Automated weather observing station with precipitation discriminator
Flight conditions Visual Meteorological Conditions
Raw dataKORD 041351Z 23011KT 10SM CLR M06/M12 A3024 RMK AO2 SLP251 T10561122 $
An error has occurred. This application may no longer respond until reloaded. Reload 🗙